createdAt,value
2017-10-08T00:00:43.279Z,8.00
2017-10-08T00:01:43.991Z,8.00
2017-10-08T00:02:44.702Z,6.00
2017-10-08T00:03:45.427Z,6.00
2017-10-08T00:04:46.137Z,6.00
2017-10-08T00:05:46.848Z,6.00
2017-10-08T00:06:47.560Z,6.00
2017-10-08T00:07:48.272Z,7.00
2017-10-08T00:08:48.984Z,6.00
2017-10-08T00:09:49.712Z,7.00
2017-10-08T00:10:50.425Z,7.00
2017-10-08T00:11:51.142Z,5.00
2017-10-08T00:12:51.849Z,5.00
2017-10-08T00:13:52.560Z,7.00
2017-10-08T00:14:53.270Z,8.00
2017-10-08T00:15:53.982Z,5.00
2017-10-08T00:16:54.693Z,6.00
2017-10-08T00:17:55.404Z,7.00
2017-10-08T00:18:56.115Z,6.00
2017-10-08T00:19:56.830Z,6.00
2017-10-08T00:20:57.540Z,6.00
2017-10-08T00:21:58.250Z,6.00
2017-10-08T00:22:58.961Z,6.00
2017-10-08T00:23:59.671Z,5.00
2017-10-08T00:25:00.384Z,6.00
2017-10-08T00:26:01.096Z,7.00
2017-10-08T00:27:01.806Z,6.00
2017-10-08T00:28:02.519Z,5.00
2017-10-08T00:29:03.244Z,6.00
2017-10-08T00:30:03.956Z,5.00
2017-10-08T00:31:04.669Z,6.00
2017-10-08T00:32:05.380Z,6.00
2017-10-08T00:33:06.108Z,6.00
2017-10-08T00:34:06.834Z,4.00
2017-10-08T00:35:07.546Z,5.00
2017-10-08T00:36:08.257Z,6.00
2017-10-08T00:37:08.968Z,7.00
2017-10-08T00:38:09.695Z,7.00
2017-10-08T00:39:10.407Z,7.00
2017-10-08T00:40:11.117Z,6.00
2017-10-08T00:41:11.829Z,5.00
2017-10-08T00:42:12.540Z,6.00
2017-10-08T00:43:13.266Z,5.00
2017-10-08T00:44:13.976Z,5.00
2017-10-08T00:45:14.702Z,5.00
2017-10-08T00:46:15.414Z,5.00
2017-10-08T00:47:16.125Z,4.00
2017-10-08T00:48:16.835Z,7.00
2017-10-08T00:49:17.560Z,9.00
2017-10-08T00:50:18.269Z,4.00
2017-10-08T00:51:18.979Z,5.00
2017-10-08T00:52:19.689Z,5.00
2017-10-08T00:53:20.400Z,6.00
2017-10-08T00:54:21.125Z,5.00
2017-10-08T00:55:21.837Z,5.00
2017-10-08T00:56:22.547Z,5.00
2017-10-08T00:57:23.260Z,6.00
2017-10-08T00:58:23.971Z,6.00
2017-10-08T00:59:24.681Z,5.00
2017-10-08T01:00:25.393Z,5.00
2017-10-08T01:01:26.104Z,6.00
2017-10-08T01:02:26.830Z,5.00
2017-10-08T01:03:27.541Z,4.00
2017-10-08T01:04:28.265Z,5.00
2017-10-08T01:05:28.979Z,5.00
2017-10-08T01:06:29.686Z,5.00
2017-10-08T01:07:30.397Z,6.00
2017-10-08T01:08:31.121Z,5.00
2017-10-08T01:09:31.832Z,5.00
2017-10-08T01:10:32.544Z,5.00
2017-10-08T01:11:33.257Z,5.00
2017-10-08T01:12:33.967Z,7.00
2017-10-08T01:13:34.680Z,5.00
2017-10-08T01:14:35.391Z,6.00
2017-10-08T01:15:36.101Z,6.00
2017-10-08T01:16:36.811Z,5.00
2017-10-08T01:17:37.520Z,6.00
2017-10-08T01:18:38.232Z,6.00
2017-10-08T01:19:38.958Z,5.00
2017-10-08T01:20:39.668Z,5.00
2017-10-08T01:21:40.380Z,5.00
2017-10-08T01:22:41.092Z,5.00
2017-10-08T01:23:41.817Z,6.00
2017-10-08T01:24:42.544Z,6.00
2017-10-08T01:25:43.255Z,6.00
2017-10-08T01:26:43.965Z,6.00
2017-10-08T01:27:44.678Z,8.00
2017-10-08T01:28:45.406Z,6.00
2017-10-08T01:29:46.118Z,5.00
2017-10-08T01:30:46.829Z,5.00
2017-10-08T01:31:47.541Z,6.00
2017-10-08T01:32:48.251Z,4.00
2017-10-08T01:33:48.961Z,6.00
2017-10-08T01:34:49.672Z,5.00
2017-10-08T01:35:50.383Z,8.00
2017-10-08T01:36:51.092Z,7.00
2017-10-08T01:37:51.802Z,5.00
2017-10-08T01:38:52.514Z,5.00
2017-10-08T01:39:53.226Z,6.00
2017-10-08T01:40:53.941Z,6.00
2017-10-08T01:41:54.650Z,6.00
2017-10-08T01:42:55.365Z,6.00
2017-10-08T01:43:56.076Z,5.00
2017-10-08T01:44:56.786Z,5.00
2017-10-08T01:45:57.499Z,6.00
2017-10-08T01:46:58.211Z,6.00
2017-10-08T01:47:58.922Z,6.00
2017-10-08T01:48:59.634Z,7.00
2017-10-08T01:50:00.343Z,6.00
2017-10-08T01:51:01.054Z,8.00
2017-10-08T01:52:01.766Z,7.00
2017-10-08T01:53:02.476Z,5.00
2017-10-08T01:54:03.202Z,7.00
2017-10-08T01:55:03.928Z,7.00
2017-10-08T01:56:04.654Z,5.00
2017-10-08T01:57:05.351Z,6.00
2017-10-08T01:58:06.061Z,6.00
2017-10-08T01:59:06.772Z,7.00
2017-10-08T02:00:07.484Z,5.00
2017-10-08T02:01:08.197Z,6.00
2017-10-08T02:02:08.909Z,6.00
2017-10-08T02:03:09.622Z,5.00
2017-10-08T02:04:10.333Z,6.00
2017-10-08T02:05:11.057Z,5.00
2017-10-08T02:06:11.768Z,6.00
2017-10-08T02:07:12.481Z,5.00
2017-10-08T02:08:13.192Z,6.00
2017-10-08T02:09:13.903Z,6.00
2017-10-08T02:10:14.617Z,6.00
2017-10-08T02:11:15.344Z,5.00
2017-10-08T02:12:16.056Z,5.00
2017-10-08T02:13:16.765Z,5.00
2017-10-08T02:14:17.488Z,5.00
2017-10-08T02:15:18.199Z,6.00
2017-10-08T02:16:18.909Z,4.00
2017-10-08T02:17:19.621Z,8.00
2017-10-08T02:18:20.332Z,4.00
2017-10-08T02:19:21.043Z,5.00
2017-10-08T02:20:21.753Z,5.00
2017-10-08T02:21:22.465Z,5.00
2017-10-08T02:22:23.176Z,7.00
2017-10-08T02:23:23.888Z,5.00
2017-10-08T02:24:24.614Z,6.00
2017-10-08T02:25:25.325Z,6.00
2017-10-08T02:26:26.036Z,5.00
2017-10-08T02:27:26.763Z,4.00
2017-10-08T02:28:27.475Z,7.00
2017-10-08T02:29:28.189Z,6.00
2017-10-08T02:30:28.898Z,5.00
2017-10-08T02:31:29.609Z,6.00
2017-10-08T02:32:30.319Z,5.00
2017-10-08T02:33:31.028Z,5.00
2017-10-08T02:34:31.741Z,5.00
2017-10-08T02:35:32.453Z,7.00
2017-10-08T02:36:33.163Z,6.00
2017-10-08T02:37:33.874Z,5.00
2017-10-08T02:38:34.589Z,5.00
2017-10-08T02:39:35.299Z,6.00
2017-10-08T02:40:36.009Z,6.00
2017-10-08T02:41:36.721Z,5.00
2017-10-08T02:42:37.432Z,5.00
2017-10-08T02:43:38.149Z,6.00
2017-10-08T02:44:38.856Z,5.00
2017-10-08T02:45:39.567Z,5.00
2017-10-08T02:46:40.280Z,5.00
2017-10-08T02:47:40.992Z,6.00
2017-10-08T02:48:41.702Z,6.00
2017-10-08T02:49:42.413Z,5.00
2017-10-08T02:50:43.124Z,5.00
2017-10-08T02:51:43.849Z,6.00
2017-10-08T02:52:44.559Z,6.00
2017-10-08T02:53:45.286Z,6.00
2017-10-08T02:54:46.012Z,5.00
2017-10-08T02:55:46.724Z,7.00
2017-10-08T02:56:47.435Z,5.00
2017-10-08T02:57:48.149Z,6.00
2017-10-08T02:58:48.857Z,6.00
2017-10-08T02:59:49.567Z,6.00
2017-10-08T03:00:50.281Z,4.00
2017-10-08T03:01:50.991Z,5.00
2017-10-08T03:02:51.702Z,7.00
2017-10-08T03:03:52.416Z,7.00
2017-10-08T03:04:53.142Z,5.00
2017-10-08T03:05:53.853Z,6.00
2017-10-08T03:06:54.564Z,5.00
2017-10-08T03:07:55.278Z,5.00
2017-10-08T03:08:56.007Z,8.00
2017-10-08T03:09:56.718Z,5.00
2017-10-08T03:10:57.429Z,6.00
2017-10-08T03:11:58.139Z,9.00
2017-10-08T03:12:58.853Z,5.00
2017-10-08T03:13:59.576Z,4.00
2017-10-08T03:15:00.303Z,5.00
2017-10-08T03:16:01.014Z,6.00
2017-10-08T03:17:01.725Z,5.00
2017-10-08T03:18:02.451Z,5.00
2017-10-08T03:19:03.162Z,5.00
2017-10-08T03:20:03.870Z,6.00
2017-10-08T03:21:04.583Z,5.00
2017-10-08T03:22:05.298Z,5.00
2017-10-08T03:23:06.003Z,5.00
2017-10-08T03:24:06.714Z,5.00
2017-10-08T03:25:07.440Z,5.00
2017-10-08T03:26:08.167Z,7.00
2017-10-08T03:27:08.878Z,5.00
2017-10-08T03:28:09.604Z,5.00
2017-10-08T03:29:10.315Z,5.00
2017-10-08T03:30:11.032Z,7.00
2017-10-08T03:31:11.738Z,7.00
2017-10-08T03:32:12.448Z,6.00
2017-10-08T03:33:13.172Z,6.00
2017-10-08T03:34:13.882Z,6.00
2017-10-08T03:35:14.592Z,6.00
2017-10-08T03:36:15.301Z,5.00
2017-10-08T03:37:16.011Z,6.00
2017-10-08T03:38:16.736Z,5.00
2017-10-08T03:39:17.458Z,6.00
2017-10-08T03:40:18.168Z,7.00
2017-10-08T03:41:18.878Z,6.00
2017-10-08T03:42:19.589Z,5.00
2017-10-08T03:43:20.301Z,6.00
2017-10-08T03:44:21.012Z,6.00
2017-10-08T03:45:21.737Z,6.00
2017-10-08T03:46:22.449Z,6.00
2017-10-08T03:47:23.160Z,6.00
2017-10-08T03:48:23.871Z,5.00
2017-10-08T03:49:24.594Z,7.00
2017-10-08T03:50:25.306Z,6.00
2017-10-08T03:51:26.016Z,5.00
2017-10-08T03:52:26.726Z,7.00
2017-10-08T03:53:27.435Z,6.00
2017-10-08T03:54:28.145Z,6.00
2017-10-08T03:55:28.870Z,6.00
2017-10-08T03:56:29.581Z,6.00
2017-10-08T03:57:30.294Z,6.00
2017-10-08T03:58:31.017Z,5.00
2017-10-08T03:59:31.728Z,8.00
2017-10-08T04:00:32.438Z,6.00
2017-10-08T04:01:33.149Z,6.00
2017-10-08T04:02:33.861Z,6.00
2017-10-08T04:03:34.570Z,6.00
2017-10-08T04:04:35.281Z,5.00
2017-10-08T04:05:35.991Z,6.00
2017-10-08T04:06:36.700Z,4.00
2017-10-08T04:07:37.409Z,6.00
2017-10-08T04:08:38.137Z,6.00
2017-10-08T04:09:38.846Z,9.00
2017-10-08T04:10:39.555Z,5.00
2017-10-08T04:11:40.266Z,6.00
2017-10-08T04:12:40.973Z,6.00
2017-10-08T04:13:41.684Z,6.00
2017-10-08T04:14:42.394Z,8.00
2017-10-08T04:15:43.102Z,6.00
2017-10-08T04:16:43.813Z,8.00
2017-10-08T04:17:44.524Z,7.00
2017-10-08T04:18:45.236Z,6.00
2017-10-08T04:19:45.946Z,6.00
2017-10-08T04:20:46.658Z,8.00
2017-10-08T04:21:47.370Z,9.00
2017-10-08T04:22:48.095Z,8.00
2017-10-08T04:23:48.840Z,6.00
2017-10-08T04:24:49.548Z,6.00
2017-10-08T04:25:50.258Z,9.00
2017-10-08T04:26:50.968Z,6.00
2017-10-08T04:27:51.680Z,7.00
2017-10-08T04:28:52.404Z,6.00
2017-10-08T04:29:53.116Z,10.00
2017-10-08T04:30:53.826Z,7.00
2017-10-08T04:31:54.539Z,6.00
2017-10-08T04:32:55.390Z,7.00
2017-10-08T04:33:56.101Z,7.00
2017-10-08T04:34:56.812Z,6.00
2017-10-08T04:35:57.534Z,6.00
2017-10-08T04:36:58.245Z,6.00
2017-10-08T04:37:58.968Z,8.00
2017-10-08T04:38:59.701Z,7.00
2017-10-08T04:40:00.413Z,9.00
2017-10-08T04:41:01.124Z,6.00
2017-10-08T04:42:01.834Z,6.00
2017-10-08T04:43:02.543Z,5.00
2017-10-08T04:44:03.254Z,8.00
2017-10-08T04:45:03.963Z,8.00
2017-10-08T04:46:04.673Z,8.00
2017-10-08T04:47:05.384Z,8.00
2017-10-08T04:48:06.096Z,8.00
2017-10-08T04:49:06.818Z,8.00
2017-10-08T04:50:07.530Z,8.00
2017-10-08T04:51:08.241Z,6.00
2017-10-08T04:52:08.953Z,6.00
2017-10-08T04:53:09.665Z,7.00
2017-10-08T04:54:10.389Z,7.00
2017-10-08T04:55:11.098Z,6.00
2017-10-08T04:56:11.807Z,8.00
2017-10-08T04:57:12.520Z,9.00
2017-10-08T04:58:13.243Z,8.00
2017-10-08T04:59:13.952Z,6.00
2017-10-08T05:00:14.663Z,7.00
2017-10-08T05:01:15.374Z,7.00
2017-10-08T05:02:16.085Z,7.00
2017-10-08T05:03:16.806Z,7.00
2017-10-08T05:04:17.508Z,8.00
2017-10-08T05:05:18.232Z,9.00
2017-10-08T05:06:18.943Z,10.00
2017-10-08T05:07:19.652Z,7.00
2017-10-08T05:08:20.426Z,6.00
2017-10-08T05:09:21.138Z,8.00
2017-10-08T05:10:21.863Z,6.00
2017-10-08T05:11:22.574Z,7.00
2017-10-08T05:12:23.297Z,6.00
2017-10-08T05:13:24.006Z,6.00
2017-10-08T05:14:24.716Z,8.00
2017-10-08T05:15:25.442Z,6.00
2017-10-08T05:16:26.151Z,8.00
2017-10-08T05:17:26.860Z,6.00
2017-10-08T05:18:27.575Z,6.00
2017-10-08T05:19:28.282Z,8.00
2017-10-08T05:20:29.006Z,6.00
2017-10-08T05:21:29.733Z,6.00
2017-10-08T05:22:30.446Z,6.00
2017-10-08T05:23:31.170Z,7.00
2017-10-08T05:24:31.883Z,6.00
2017-10-08T05:25:32.595Z,8.00
2017-10-08T05:26:33.304Z,6.00
2017-10-08T05:27:34.118Z,6.00
2017-10-08T05:28:34.834Z,6.00
2017-10-08T05:29:35.539Z,4.00
2017-10-08T05:30:36.250Z,6.00
2017-10-08T05:31:36.964Z,6.00
2017-10-08T05:32:37.673Z,6.00
2017-10-08T05:33:38.384Z,7.00
2017-10-08T05:34:39.092Z,7.00
2017-10-08T05:35:39.814Z,7.00
2017-10-08T05:36:40.525Z,5.00
2017-10-08T05:37:41.251Z,5.00
2017-10-08T05:38:41.962Z,5.00
2017-10-08T05:39:42.674Z,6.00
2017-10-08T05:40:43.384Z,5.00
2017-10-08T05:41:44.194Z,6.00
2017-10-08T05:42:44.906Z,6.00
2017-10-08T05:43:45.632Z,5.00
2017-10-08T05:44:46.345Z,5.00
2017-10-08T05:45:47.069Z,6.00
2017-10-08T05:46:47.786Z,6.00
2017-10-08T05:47:48.494Z,6.00
2017-10-08T05:48:49.207Z,5.00
2017-10-08T05:49:49.919Z,7.00
2017-10-08T05:50:50.647Z,5.00
2017-10-08T05:51:51.373Z,6.00
2017-10-08T05:52:52.100Z,6.00
2017-10-08T05:53:52.815Z,6.00
2017-10-08T05:54:53.612Z,5.00
2017-10-08T05:55:54.326Z,6.00
2017-10-08T05:56:55.040Z,6.00
2017-10-08T05:57:55.753Z,6.00
2017-10-08T05:58:56.477Z,6.00
2017-10-08T05:59:57.192Z,6.00
2017-10-08T06:00:57.906Z,7.00
2017-10-08T06:01:58.619Z,5.00
2017-10-08T06:02:59.332Z,5.00
2017-10-08T06:04:00.045Z,7.00
2017-10-08T06:05:00.759Z,6.00
2017-10-08T06:06:01.484Z,6.00
2017-10-08T06:07:02.200Z,5.00
2017-10-08T06:08:02.914Z,6.00
2017-10-08T06:09:03.662Z,4.00
2017-10-08T06:10:04.355Z,5.00
2017-10-08T06:11:05.067Z,5.00
2017-10-08T06:12:05.781Z,6.00
2017-10-08T06:13:06.495Z,5.00
2017-10-08T06:14:07.210Z,5.00
2017-10-08T06:15:07.924Z,6.00
2017-10-08T06:16:08.637Z,5.00
2017-10-08T06:17:09.352Z,5.00
2017-10-08T06:18:10.079Z,5.00
2017-10-08T06:19:10.793Z,5.00
2017-10-08T06:20:11.507Z,5.00
2017-10-08T06:21:12.222Z,6.00
2017-10-08T06:22:12.936Z,4.00
2017-10-08T06:23:13.647Z,6.00
2017-10-08T06:24:14.361Z,5.00
2017-10-08T06:25:15.077Z,5.00
2017-10-08T06:26:15.790Z,5.00
2017-10-08T06:27:16.506Z,5.00
2017-10-08T06:28:17.223Z,5.00
2017-10-08T06:29:18.189Z,5.00
2017-10-08T06:30:18.905Z,11.00
2017-10-08T06:31:19.619Z,6.00
2017-10-08T06:32:20.332Z,8.00
2017-10-08T06:33:21.047Z,6.00
2017-10-08T06:34:21.777Z,6.00
2017-10-08T06:35:22.492Z,5.00
2017-10-08T06:36:23.218Z,5.00
2017-10-08T06:37:23.935Z,5.00
2017-10-08T06:38:24.663Z,5.00
2017-10-08T06:39:25.391Z,4.00
2017-10-08T06:40:26.109Z,5.00
2017-10-08T06:41:26.824Z,5.00
2017-10-08T06:42:27.551Z,5.00
2017-10-08T06:43:28.266Z,5.00
2017-10-08T06:44:28.981Z,5.00
2017-10-08T06:45:29.696Z,4.00
2017-10-08T06:46:30.415Z,5.00
2017-10-08T06:47:31.130Z,5.00
2017-10-08T06:48:31.857Z,5.00
2017-10-08T06:49:32.570Z,5.00
2017-10-08T06:50:33.301Z,5.00
2017-10-08T06:51:34.016Z,5.00
2017-10-08T06:52:34.730Z,5.00
2017-10-08T06:53:35.455Z,4.00
2017-10-08T06:54:36.167Z,4.00
2017-10-08T06:55:36.880Z,5.00
2017-10-08T06:56:37.592Z,5.00
2017-10-08T06:57:38.319Z,5.00
2017-10-08T06:58:39.033Z,5.00
2017-10-08T06:59:39.761Z,5.00
2017-10-08T07:00:40.490Z,5.00
2017-10-08T07:01:41.204Z,5.00
2017-10-08T07:02:41.930Z,5.00
2017-10-08T07:03:42.661Z,4.00
2017-10-08T07:04:43.377Z,6.00
2017-10-08T07:05:44.093Z,4.00
2017-10-08T07:06:44.808Z,4.00
2017-10-08T07:07:45.538Z,4.00
2017-10-08T07:08:46.252Z,4.00
2017-10-08T07:09:46.965Z,5.00
2017-10-08T07:10:47.692Z,5.00
2017-10-08T07:11:48.408Z,6.00
2017-10-08T07:12:49.126Z,5.00
2017-10-08T07:13:49.852Z,4.00
2017-10-08T07:14:50.567Z,4.00
2017-10-08T07:15:51.283Z,5.00
2017-10-08T07:16:51.996Z,4.00
2017-10-08T07:17:52.713Z,5.00
2017-10-08T07:18:53.440Z,5.00
2017-10-08T07:19:54.154Z,4.00
2017-10-08T07:20:54.868Z,4.00
2017-10-08T07:21:55.582Z,4.00
2017-10-08T07:22:56.297Z,4.00
2017-10-08T07:23:57.014Z,3.00
2017-10-08T07:24:57.731Z,4.00
2017-10-08T07:25:58.446Z,3.00
2017-10-08T07:26:59.175Z,3.00
2017-10-08T07:27:59.893Z,4.00
2017-10-08T07:29:00.610Z,4.00
2017-10-08T07:30:01.324Z,2.00
2017-10-08T07:31:02.051Z,3.00
2017-10-08T07:32:02.783Z,5.00
2017-10-08T07:33:03.497Z,3.00
2017-10-08T07:34:04.224Z,2.00
2017-10-08T07:35:04.941Z,3.00
2017-10-08T07:36:05.671Z,3.00
2017-10-08T07:37:06.401Z,4.00
2017-10-08T07:38:07.118Z,2.00
2017-10-08T07:39:07.847Z,3.00
2017-10-08T07:40:08.564Z,4.00
2017-10-08T07:41:09.297Z,4.00
2017-10-08T07:42:10.011Z,3.00
2017-10-08T07:43:10.726Z,4.00
2017-10-08T07:44:11.444Z,3.00
2017-10-08T07:45:12.161Z,3.00
2017-10-08T07:46:12.877Z,3.00
2017-10-08T07:47:13.596Z,3.00
2017-10-08T07:48:14.313Z,4.00
2017-10-08T07:49:15.029Z,3.00
2017-10-08T07:50:15.744Z,3.00
2017-10-08T07:51:16.474Z,3.00
2017-10-08T07:52:17.192Z,2.00
2017-10-08T07:53:17.911Z,3.00
2017-10-08T07:54:18.642Z,3.00
2017-10-08T07:55:19.357Z,4.00
2017-10-08T07:56:20.074Z,3.00
2017-10-08T07:57:20.797Z,4.00
2017-10-08T07:58:21.526Z,3.00
2017-10-08T07:59:22.252Z,3.00
2017-10-08T08:00:22.966Z,3.00
2017-10-08T08:01:23.688Z,3.00
2017-10-08T08:02:24.408Z,3.00
2017-10-08T08:03:25.141Z,3.00
2017-10-08T08:04:25.862Z,3.00
2017-10-08T08:05:26.585Z,2.00
2017-10-08T08:06:27.305Z,2.00
2017-10-08T08:07:28.027Z,3.00
2017-10-08T08:08:28.762Z,4.00
2017-10-08T08:09:29.489Z,2.00
2017-10-08T08:10:30.217Z,2.00
2017-10-08T08:11:30.950Z,2.00
2017-10-08T08:12:31.674Z,3.00
2017-10-08T08:13:32.400Z,3.00
2017-10-08T08:14:33.125Z,3.00
2017-10-08T08:15:33.862Z,2.00
2017-10-08T08:16:34.586Z,2.00
2017-10-08T08:17:35.311Z,2.00
2017-10-08T08:18:36.034Z,3.00
2017-10-08T08:19:36.756Z,2.00
2017-10-08T08:20:37.478Z,2.00
2017-10-08T08:21:38.202Z,2.00
2017-10-08T08:22:38.923Z,2.00
2017-10-08T08:23:39.644Z,2.00
2017-10-08T08:24:40.367Z,2.00
2017-10-08T08:25:41.089Z,2.00
2017-10-08T08:26:41.809Z,2.00
2017-10-08T08:27:42.542Z,2.00
2017-10-08T08:28:43.263Z,2.00
2017-10-08T08:29:43.985Z,3.00
2017-10-08T08:30:44.718Z,2.00
2017-10-08T08:31:45.452Z,3.00
2017-10-08T08:32:46.178Z,2.00
2017-10-08T08:33:46.897Z,4.00
2017-10-08T08:34:47.627Z,2.00
2017-10-08T08:35:48.347Z,2.00
2017-10-08T08:36:49.068Z,2.00
2017-10-08T08:37:49.789Z,2.00
2017-10-08T08:38:50.511Z,5.00
2017-10-08T08:39:51.233Z,4.00
2017-10-08T08:40:51.955Z,2.00
2017-10-08T08:41:52.694Z,3.00
2017-10-08T08:42:53.413Z,2.00
2017-10-08T08:43:54.132Z,2.00
2017-10-08T08:44:54.854Z,2.00
2017-10-08T08:45:55.590Z,2.00
2017-10-08T08:46:56.312Z,3.00
2017-10-08T08:47:57.033Z,2.00
2017-10-08T08:48:57.756Z,3.00
2017-10-08T08:49:58.473Z,4.00
2017-10-08T08:50:59.198Z,2.00
2017-10-08T08:51:59.932Z,2.00
2017-10-08T08:53:00.671Z,2.00
2017-10-08T08:54:01.400Z,2.00
2017-10-08T08:55:02.129Z,3.00
2017-10-08T08:56:02.850Z,2.00
2017-10-08T08:57:03.574Z,2.00
2017-10-08T08:58:04.294Z,3.00
2017-10-08T08:59:05.031Z,3.00
2017-10-08T09:00:05.752Z,3.00
2017-10-08T09:01:06.475Z,2.00
2017-10-08T09:02:07.199Z,3.00
2017-10-08T09:03:07.933Z,3.00
2017-10-08T09:04:08.656Z,2.00
2017-10-08T09:05:09.381Z,4.00
2017-10-08T09:06:10.102Z,3.00
2017-10-08T09:07:10.825Z,3.00
2017-10-08T09:08:11.548Z,2.00
2017-10-08T09:09:12.286Z,2.00
2017-10-08T09:10:13.007Z,3.00
2017-10-08T09:11:13.730Z,2.00
2017-10-08T09:12:14.452Z,3.00
2017-10-08T09:13:15.174Z,2.00
2017-10-08T09:14:15.909Z,2.00
2017-10-08T09:15:16.631Z,2.00
2017-10-08T09:16:17.356Z,3.00
2017-10-08T09:17:18.079Z,3.00
2017-10-08T09:18:18.801Z,2.00
2017-10-08T09:19:19.522Z,4.00
2017-10-08T09:20:20.256Z,3.00
2017-10-08T09:21:20.978Z,2.00
2017-10-08T09:22:21.703Z,4.00
2017-10-08T09:23:22.431Z,3.00
2017-10-08T09:24:23.161Z,3.00
2017-10-08T09:25:23.898Z,3.00
2017-10-08T09:26:24.620Z,3.00
2017-10-08T09:27:25.343Z,3.00
2017-10-08T09:28:26.067Z,3.00
2017-10-08T09:29:26.793Z,3.00
2017-10-08T09:30:27.527Z,3.00
2017-10-08T09:31:28.249Z,2.00
2017-10-08T09:32:28.973Z,3.00
2017-10-08T09:33:29.698Z,3.00
2017-10-08T09:34:30.424Z,3.00
2017-10-08T09:35:31.145Z,3.00
2017-10-08T09:36:31.867Z,3.00
2017-10-08T09:37:32.590Z,2.00
2017-10-08T09:38:33.313Z,2.00
2017-10-08T09:39:34.049Z,2.00
2017-10-08T09:40:34.772Z,3.00
2017-10-08T09:41:35.497Z,3.00
2017-10-08T09:42:36.218Z,2.00
2017-10-08T09:43:36.941Z,3.00
2017-10-08T09:44:37.665Z,2.00
2017-10-08T09:45:38.385Z,4.00
2017-10-08T09:46:39.109Z,4.00
2017-10-08T09:47:39.829Z,3.00
2017-10-08T09:48:40.550Z,4.00
2017-10-08T09:49:41.273Z,4.00
2017-10-08T09:50:41.995Z,3.00
2017-10-08T09:51:42.715Z,4.00
2017-10-08T09:52:43.439Z,3.00
2017-10-08T09:53:44.159Z,4.00
2017-10-08T09:54:44.895Z,3.00
2017-10-08T09:55:45.627Z,3.00
2017-10-08T09:56:46.347Z,2.00
2017-10-08T09:57:47.067Z,3.00
2017-10-08T09:58:47.788Z,4.00
2017-10-08T09:59:48.509Z,2.00
2017-10-08T10:00:49.227Z,4.00
2017-10-08T10:01:49.949Z,2.00
2017-10-08T10:02:50.688Z,3.00
2017-10-08T10:03:51.446Z,4.00
2017-10-08T10:04:52.154Z,3.00
2017-10-08T10:05:52.880Z,2.00
2017-10-08T10:06:53.607Z,3.00
2017-10-08T10:07:54.356Z,3.00
2017-10-08T10:08:55.079Z,2.00
2017-10-08T10:09:55.796Z,3.00
2017-10-08T10:10:56.532Z,2.00
2017-10-08T10:11:57.252Z,3.00
2017-10-08T10:12:57.973Z,2.00
2017-10-08T10:13:58.698Z,4.00
2017-10-08T10:14:59.417Z,3.00
2017-10-08T10:16:00.138Z,3.00
2017-10-08T10:17:00.860Z,4.00
2017-10-08T10:18:01.582Z,4.00
2017-10-08T10:19:02.302Z,4.00
2017-10-08T10:20:03.024Z,4.00
2017-10-08T10:21:03.761Z,3.00
2017-10-08T10:22:04.484Z,3.00
2017-10-08T10:23:05.206Z,2.00
2017-10-08T10:24:05.929Z,4.00
2017-10-08T10:25:06.652Z,3.00
2017-10-08T10:26:07.373Z,3.00
2017-10-08T10:27:08.098Z,3.00
2017-10-08T10:28:08.834Z,3.00
2017-10-08T10:29:09.569Z,1.00
2017-10-08T10:30:10.306Z,3.00
2017-10-08T10:31:11.028Z,3.00
2017-10-08T10:32:11.750Z,3.00
2017-10-08T10:33:12.473Z,2.00
2017-10-08T10:34:13.196Z,2.00
2017-10-08T10:35:13.917Z,2.00
2017-10-08T10:36:14.655Z,4.00
2017-10-08T10:37:15.381Z,4.00
2017-10-08T10:38:16.105Z,3.00
2017-10-08T10:39:16.844Z,2.00
2017-10-08T10:40:17.567Z,2.00
2017-10-08T10:41:18.305Z,4.00
2017-10-08T10:42:19.030Z,2.00
2017-10-08T10:43:19.756Z,2.00
2017-10-08T10:44:20.492Z,2.00
2017-10-08T10:45:21.218Z,2.00
2017-10-08T10:46:21.954Z,2.00
2017-10-08T10:47:22.692Z,2.00
2017-10-08T10:48:23.430Z,3.00
2017-10-08T10:49:24.154Z,2.00
2017-10-08T10:50:24.879Z,2.00
2017-10-08T10:51:25.603Z,2.00
2017-10-08T10:52:26.327Z,3.00
2017-10-08T10:53:27.064Z,2.00
2017-10-08T10:54:27.790Z,3.00
2017-10-08T10:55:28.542Z,3.00
2017-10-08T10:56:29.266Z,2.00
2017-10-08T10:57:29.989Z,2.00
2017-10-08T10:58:30.712Z,2.00
2017-10-08T10:59:31.438Z,3.00
2017-10-08T11:00:32.167Z,3.00
2017-10-08T11:01:32.906Z,2.00
2017-10-08T11:02:33.633Z,2.00
2017-10-08T11:03:34.365Z,2.00
2017-10-08T11:04:35.094Z,2.00
2017-10-08T11:05:35.825Z,2.00
2017-10-08T11:06:36.574Z,2.00
2017-10-08T11:07:37.303Z,2.00
2017-10-08T11:08:38.034Z,2.00
2017-10-08T11:09:38.767Z,2.00
2017-10-08T11:10:39.496Z,1.00
2017-10-08T11:11:40.232Z,2.00
2017-10-08T11:12:40.967Z,1.00
2017-10-08T11:13:41.705Z,1.00
2017-10-08T11:14:42.456Z,2.00
2017-10-08T11:15:43.191Z,1.00
2017-10-08T11:16:43.925Z,2.00
2017-10-08T11:17:44.656Z,2.00
2017-10-08T11:18:45.405Z,2.00
2017-10-08T11:19:46.139Z,1.00
2017-10-08T11:20:46.872Z,2.00
2017-10-08T11:21:47.604Z,2.00
2017-10-08T11:22:48.336Z,1.00
2017-10-08T11:23:49.070Z,1.00
2017-10-08T11:24:49.803Z,1.00
2017-10-08T11:25:50.533Z,2.00
2017-10-08T11:26:51.282Z,3.00
2017-10-08T11:27:52.029Z,3.00
2017-10-08T11:28:52.763Z,3.00
2017-10-08T11:29:53.497Z,3.00
2017-10-08T11:30:54.243Z,2.00
2017-10-08T11:31:54.989Z,1.00
2017-10-08T11:32:55.722Z,2.00
2017-10-08T11:33:56.459Z,2.00
2017-10-08T11:34:57.192Z,2.00
2017-10-08T11:35:57.938Z,1.00
2017-10-08T11:36:58.671Z,2.00
2017-10-08T11:37:59.407Z,1.00
2017-10-08T11:39:00.141Z,2.00
2017-10-08T11:40:00.874Z,2.00
2017-10-08T11:41:01.611Z,2.00
2017-10-08T11:42:02.345Z,1.00
2017-10-08T11:43:03.082Z,2.00
2017-10-08T11:44:03.818Z,2.00
2017-10-08T11:45:04.554Z,1.00
2017-10-08T11:46:05.287Z,2.00
2017-10-08T11:47:06.021Z,2.00
2017-10-08T11:48:06.757Z,1.00
2017-10-08T11:49:07.493Z,2.00
2017-10-08T11:50:08.228Z,2.00
2017-10-08T11:51:08.965Z,2.00
2017-10-08T11:52:09.696Z,2.00
2017-10-08T11:53:10.432Z,2.00
2017-10-08T11:54:11.178Z,2.00
2017-10-08T11:55:11.924Z,1.00
2017-10-08T11:56:12.661Z,3.00
2017-10-08T11:57:13.396Z,2.00
2017-10-08T11:58:14.131Z,3.00
2017-10-08T11:59:14.866Z,1.00
2017-10-08T12:00:15.599Z,3.00
2017-10-08T12:01:16.332Z,3.00
2017-10-08T12:02:17.067Z,2.00
2017-10-08T12:03:17.800Z,2.00
2017-10-08T12:04:18.532Z,2.00
2017-10-08T12:05:19.269Z,2.00
2017-10-08T12:06:19.999Z,2.00
2017-10-08T12:07:20.731Z,2.00
2017-10-08T12:08:21.465Z,3.00
2017-10-08T12:09:22.200Z,1.00
2017-10-08T12:10:22.947Z,1.00
2017-10-08T12:11:23.676Z,2.00
2017-10-08T12:12:24.407Z,2.00
2017-10-08T12:13:25.138Z,2.00
2017-10-08T12:14:25.868Z,2.00
2017-10-08T12:15:26.607Z,2.00
2017-10-08T12:16:27.338Z,2.00
2017-10-08T12:17:28.066Z,2.00
2017-10-08T12:18:28.798Z,7.00
2017-10-08T12:19:29.530Z,5.00
2017-10-08T12:20:30.273Z,4.00
2017-10-08T12:21:31.016Z,2.00
2017-10-08T12:22:31.744Z,4.00
2017-10-08T12:23:32.474Z,4.00
2017-10-08T12:24:33.203Z,2.00
2017-10-08T12:25:33.931Z,2.00
2017-10-08T12:26:34.657Z,2.00
2017-10-08T12:27:35.383Z,2.00
2017-10-08T12:28:36.109Z,2.00
2017-10-08T12:29:36.847Z,1.00
2017-10-08T12:30:37.572Z,3.00
2017-10-08T12:31:38.297Z,3.00
2017-10-08T12:32:39.022Z,2.00
2017-10-08T12:33:39.746Z,3.00
2017-10-08T12:34:40.468Z,2.00
2017-10-08T12:35:41.192Z,3.00
2017-10-08T12:36:41.929Z,3.00
2017-10-08T12:37:42.662Z,2.00
2017-10-08T12:38:43.398Z,2.00
2017-10-08T12:39:44.120Z,2.00
2017-10-08T12:40:44.843Z,2.00
2017-10-08T12:41:45.567Z,3.00
2017-10-08T12:42:46.292Z,2.00
2017-10-08T12:43:47.014Z,2.00
2017-10-08T12:44:47.737Z,3.00
2017-10-08T12:45:48.462Z,4.00
2017-10-08T12:46:49.196Z,2.00
2017-10-08T12:47:49.919Z,3.00
2017-10-08T12:48:50.640Z,4.00
2017-10-08T12:49:51.362Z,3.00
2017-10-08T12:50:52.098Z,4.00
2017-10-08T12:51:52.818Z,2.00
2017-10-08T12:52:53.553Z,4.00
2017-10-08T12:53:54.277Z,3.00
2017-10-08T12:54:55.003Z,3.00
2017-10-08T12:55:55.725Z,3.00
2017-10-08T12:56:56.450Z,5.00
2017-10-08T12:57:57.176Z,4.00
2017-10-08T12:58:57.902Z,3.00
2017-10-08T12:59:58.629Z,2.00
2017-10-08T13:00:59.356Z,2.00
2017-10-08T13:02:00.085Z,3.00
2017-10-08T13:03:00.812Z,2.00
2017-10-08T13:04:01.539Z,2.00
2017-10-08T13:05:02.282Z,4.00
2017-10-08T13:06:03.016Z,3.00
2017-10-08T13:07:03.748Z,2.00
2017-10-08T13:08:04.478Z,3.00
2017-10-08T13:09:05.224Z,2.00
2017-10-08T13:10:05.970Z,2.00
2017-10-08T13:11:06.704Z,2.00
2017-10-08T13:12:07.437Z,1.00
2017-10-08T13:13:08.182Z,3.00
2017-10-08T13:14:08.913Z,2.00
2017-10-08T13:15:09.643Z,2.00
2017-10-08T13:16:10.375Z,2.00
2017-10-08T13:17:11.103Z,3.00
2017-10-08T13:18:11.829Z,2.00
2017-10-08T13:19:12.558Z,3.00
2017-10-08T13:20:13.283Z,3.00
2017-10-08T13:21:14.021Z,3.00
2017-10-08T13:22:14.748Z,2.00
2017-10-08T13:23:15.474Z,3.00
2017-10-08T13:24:16.201Z,2.00
2017-10-08T13:25:16.937Z,2.00
2017-10-08T13:26:17.661Z,2.00
2017-10-08T13:27:18.388Z,3.00
2017-10-08T13:28:19.115Z,3.00